createdAt,value
2023-04-27T00:02:19.978Z,100632.2
2023-04-27T00:22:19.834Z,100634.53
2023-04-27T00:27:19.504Z,100631.98
2023-04-27T00:32:19.777Z,100638.62000000001
2023-04-27T00:37:20.304Z,100639.23
2023-04-27T00:42:19.665Z,100648.28
2023-04-27T00:47:19.696Z,100646.23
2023-04-27T00:52:19.923Z,100647.76000000001
2023-04-27T00:57:19.966Z,100647.83
2023-04-27T01:02:21.169Z,100653.85
2023-04-27T01:07:24.622Z,100651.79000000001
2023-04-27T01:12:20.096Z,100660.74
2023-04-27T01:17:19.770Z,100662.04000000001
2023-04-27T01:22:20.415Z,100664.59
2023-04-27T01:27:19.631Z,100669.72
2023-04-27T01:32:20.396Z,100670.93
2023-04-27T01:37:20.167Z,100667.52
2023-04-27T01:42:19.656Z,100671.41
2023-04-27T01:47:19.924Z,100673.13
2023-04-27T01:52:19.844Z,100672.37
2023-04-27T01:52:55.747Z,100672.37
2023-04-27T02:32:10.716Z,100675.87
2023-04-27T02:37:11.160Z,100675.89
2023-04-27T02:42:10.991Z,100668.22
2023-04-27T02:47:10.872Z,100681.7
2023-04-27T02:52:10.654Z,100686.31
2023-04-27T02:57:11.055Z,100678.05
2023-04-27T03:02:10.682Z,100682.95000000001
2023-04-27T03:07:11.187Z,100683.04000000001
2023-04-27T03:12:10.909Z,100689.5
2023-04-27T03:17:10.773Z,100696.17
2023-04-27T03:20:00.260Z,100695.59000000001
2023-04-27T03:22:11.280Z,100695.59000000001
2023-04-27T03:25:55.064Z,100698.22
2023-04-27T03:27:10.780Z,100698.22
2023-04-27T03:32:10.796Z,100701.26000000001
2023-04-27T03:37:10.925Z,100691.09
2023-04-27T03:42:10.714Z,100700.58
2023-04-27T03:47:10.743Z,100698.20999999999
2023-04-27T03:52:11.357Z,100705.33
2023-04-27T03:57:10.691Z,100707.76
2023-04-27T04:02:10.754Z,100715.99
2023-04-27T04:07:11.015Z,100723.77
2023-04-27T04:09:30.110Z,100723.56
2023-04-27T04:12:10.609Z,100723.56
2023-04-27T04:15:49.389Z,100736.14
2023-04-27T04:17:10.704Z,100736.14
2023-04-27T04:22:11.126Z,100741.72
2023-04-27T04:27:10.684Z,100746.40000000001
2023-04-27T04:32:11.328Z,100740.59
2023-04-27T04:37:10.690Z,100738.48000000001
2023-04-27T04:42:10.618Z,100742.28
2023-04-27T04:47:11.018Z,100742.01000000001
2023-04-27T04:52:11.179Z,100741.28
2023-04-27T04:57:10.707Z,100741.95999999999
2023-04-27T05:02:10.634Z,100745.39
2023-04-27T05:07:12.006Z,100750.27
2023-04-27T05:12:10.623Z,100751.14
2023-04-27T05:17:11.417Z,100758.51
2023-04-27T05:22:10.759Z,100759.74
2023-04-27T05:27:11.977Z,100756.37000000001
2023-04-27T05:32:10.753Z,100757.51000000001
2023-04-27T05:37:10.771Z,100770.48
2023-04-27T05:42:10.544Z,100774.54000000001
2023-04-27T05:47:10.578Z,100771.90000000001
2023-04-27T05:52:10.764Z,100774.91
2023-04-27T05:53:32.073Z,100768.48999999999
2023-04-27T05:53:53.349Z,100768.48999999999
2023-04-27T05:57:10.508Z,100768.48999999999
2023-04-27T06:02:11.034Z,100769.7
2023-04-27T06:06:03.345Z,100768.62999999999
2023-04-27T06:07:11.591Z,100768.62999999999
2023-04-27T06:12:10.826Z,100768.87000000001
2023-04-27T06:17:10.875Z,100769.58
2023-04-27T06:22:10.613Z,100773.29999999999
2023-04-27T06:27:10.812Z,100776.98000000001
2023-04-27T06:32:11.312Z,100774.95
2023-04-27T06:37:10.699Z,100780.3
2023-04-27T06:42:10.800Z,100773.8
2023-04-27T06:47:10.952Z,100772.92
2023-04-27T06:52:10.586Z,100777.06
2023-04-27T06:57:10.600Z,100779.71
2023-04-27T07:02:10.835Z,100779.47
2023-04-27T07:07:10.520Z,100778.48
2023-04-27T07:12:10.563Z,100783.54000000001
2023-04-27T07:17:10.758Z,100782.47
2023-04-27T07:22:10.732Z,100780.66
2023-04-27T07:27:10.731Z,100780.05
2023-04-27T07:32:10.873Z,100785.17
2023-04-27T07:37:10.596Z,100777.56000000001
2023-04-27T07:42:11.547Z,100782.17
2023-04-27T07:47:10.682Z,100773.28
2023-04-27T07:52:10.494Z,100775.72
2023-04-27T07:57:10.673Z,100783.8
2023-04-27T08:02:18.501Z,100785.51999999999
2023-04-27T08:07:11.143Z,100788.86
2023-04-27T08:12:10.690Z,100798.06999999999
2023-04-27T08:17:10.831Z,100789.73
2023-04-27T08:22:10.604Z,100773.19
2023-04-27T08:27:10.666Z,100778.72
2023-04-27T08:32:10.656Z,100783.15
2023-04-27T08:37:10.656Z,100791.53
2023-04-27T08:42:11.095Z,100788.89
2023-04-27T08:47:11.311Z,100789.17
2023-04-27T08:52:11.686Z,100797.67
2023-04-27T08:57:10.909Z,100796.55
2023-04-27T09:02:20.490Z,100796.01
2023-04-27T09:07:11.963Z,100803.0
2023-04-27T09:12:15.030Z,100806.95
2023-04-27T09:17:10.632Z,100801.56
2023-04-27T09:22:10.668Z,100804.85
2023-04-27T09:27:18.858Z,100799.49
2023-04-27T09:32:16.778Z,100799.08
2023-04-27T09:37:11.403Z,100795.0
2023-04-27T09:42:11.294Z,100798.27
2023-04-27T09:47:13.110Z,100801.11
2023-04-27T09:52:10.690Z,100797.58
2023-04-27T09:57:27.693Z,100793.98
2023-04-27T10:02:24.766Z,100796.89
2023-04-27T10:07:12.212Z,100797.20999999999
2023-04-27T10:12:22.008Z,100798.97
2023-04-27T10:17:10.757Z,100803.54999999999
2023-04-27T10:22:10.387Z,100813.4
2023-04-27T10:27:14.998Z,100813.89
2023-04-27T10:32:12.621Z,100805.33
2023-04-27T10:37:11.533Z,100800.51
2023-04-27T10:42:10.730Z,100805.8
2023-04-27T10:47:14.445Z,100797.42
2023-04-27T10:52:10.583Z,100796.3
2023-04-27T10:57:11.636Z,100805.61
2023-04-27T11:02:11.199Z,100801.0
2023-04-27T11:07:11.614Z,100816.76999999999
2023-04-27T11:12:11.901Z,100821.86
2023-04-27T11:17:12.276Z,100826.06
2023-04-27T11:22:10.581Z,100831.2
2023-04-27T11:26:27.928Z,100828.88
2023-04-27T11:27:10.332Z,100828.88
2023-04-27T11:32:18.944Z,100832.36
2023-04-27T11:36:15.947Z,100830.90999999999
2023-04-27T11:37:20.873Z,100830.90999999999
2023-04-27T11:42:14.188Z,100828.19
2023-04-27T11:47:18.272Z,100824.77
2023-04-27T11:52:10.616Z,100823.08
2023-04-27T11:57:10.426Z,100824.95999999999
2023-04-27T12:02:10.821Z,100821.1
2023-04-27T12:07:11.302Z,100822.06999999999
2023-04-27T12:12:11.969Z,100811.28
2023-04-27T12:17:10.921Z,100815.18
2023-04-27T12:22:10.840Z,100815.85
2023-04-27T12:27:11.211Z,100822.17000000001
2023-04-27T12:32:10.646Z,100821.23
2023-04-27T12:37:11.031Z,100826.14
2023-04-27T12:42:10.658Z,100832.62
2023-04-27T12:47:12.280Z,100834.99
2023-04-27T12:52:10.405Z,100835.39
2023-04-27T12:57:10.300Z,100828.78
2023-04-27T13:02:11.527Z,100831.79000000001
2023-04-27T13:07:11.068Z,100831.06
2023-04-27T13:12:10.321Z,100830.48999999999
2023-04-27T13:17:10.651Z,100830.78
2023-04-27T13:22:10.742Z,100830.11
2023-04-27T13:27:10.602Z,100828.7
2023-04-27T13:32:10.409Z,100833.09000000001
2023-04-27T13:37:10.546Z,100844.7
2023-04-27T13:42:10.550Z,100850.39
2023-04-27T13:47:11.389Z,100853.52
2023-04-27T13:52:10.486Z,100856.58
2023-04-27T13:57:10.375Z,100862.95
2023-04-27T14:02:10.598Z,100861.3
2023-04-27T14:07:10.340Z,100852.5
2023-04-27T14:12:10.635Z,100854.17
2023-04-27T14:17:10.590Z,100861.81
2023-04-27T14:22:10.442Z,100858.26
2023-04-27T14:27:10.344Z,100848.91
2023-04-27T14:32:10.622Z,100850.7
2023-04-27T14:37:10.489Z,100851.31
2023-04-27T14:42:10.524Z,100853.8
2023-04-27T14:47:10.398Z,100864.42
2023-04-27T14:52:10.316Z,100874.5
2023-04-27T14:57:10.225Z,100875.11
2023-04-27T15:02:10.540Z,100884.55
2023-04-27T15:07:10.523Z,100876.42
2023-04-27T15:12:10.245Z,100883.48999999999
2023-04-27T15:17:12.322Z,100888.06
2023-04-27T15:22:10.409Z,100886.69
2023-04-27T15:27:10.461Z,100888.92
2023-04-27T15:32:10.787Z,100883.67
2023-04-27T15:37:10.820Z,100888.56
2023-04-27T15:42:10.334Z,100889.87
2023-04-27T15:47:12.330Z,100895.56
2023-04-27T15:52:10.186Z,100892.6
2023-04-27T15:57:10.295Z,100901.34000000001
2023-04-27T16:02:11.215Z,100898.17
2023-04-27T16:07:10.227Z,100907.73000000001
2023-04-27T16:12:10.187Z,100908.7
2023-04-27T16:17:10.750Z,100910.08
2023-04-27T16:22:10.155Z,100913.92
2023-04-27T16:27:10.648Z,100911.01999999999
2023-04-27T16:32:11.067Z,100918.94
2023-04-27T16:37:10.538Z,100915.91
2023-04-27T16:42:08.686Z,100917.07
2023-04-27T16:42:11.795Z,100917.07
2023-04-27T16:47:10.327Z,100918.48
2023-04-27T16:47:37.595Z,100918.48
2023-04-27T16:52:11.746Z,100924.11
2023-04-27T16:56:41.296Z,100922.85
2023-04-27T16:57:12.239Z,100922.85
2023-04-27T17:02:23.952Z,100927.19
2023-04-27T17:07:10.345Z,100934.63
2023-04-27T17:12:12.319Z,100938.11
2023-04-27T17:17:10.556Z,100946.52
2023-04-27T17:18:20.610Z,100943.09
2023-04-27T17:18:42.007Z,100943.09
2023-04-27T17:27:15.790Z,100945.61
2023-04-27T17:32:10.098Z,100946.51
2023-04-27T17:37:10.416Z,100942.11
2023-04-27T17:42:11.095Z,100944.9
2023-04-27T17:47:10.597Z,100939.56
2023-04-27T17:52:10.238Z,100941.28
2023-04-27T17:57:10.332Z,100947.24
2023-04-27T18:02:10.125Z,100952.5
2023-04-27T18:07:10.273Z,100954.24
2023-04-27T18:12:10.481Z,100963.17
2023-04-27T18:17:10.240Z,100966.66
2023-04-27T18:22:10.154Z,100973.65
2023-04-27T18:27:10.813Z,100979.98999999999
2023-04-27T18:32:10.219Z,100983.08
2023-04-27T18:37:10.226Z,100986.73999999999
2023-04-27T18:42:10.493Z,100986.64
2023-04-27T18:47:12.706Z,100990.01
2023-04-27T18:52:10.405Z,100998.85
2023-04-27T18:57:10.306Z,100997.56
2023-04-27T19:02:10.101Z,101000.06
2023-04-27T19:02:14.993Z,101000.06
2023-04-27T19:03:07.831Z,101002.97
2023-04-27T19:07:10.097Z,101002.97
2023-04-27T19:12:10.508Z,100998.58
2023-04-27T19:17:10.907Z,101001.28
2023-04-27T19:22:10.226Z,100996.03
2023-04-27T19:27:14.923Z,100999.77
2023-04-27T19:32:09.979Z,100999.37999999999
2023-04-27T19:37:10.127Z,100998.65999999999
2023-04-27T19:39:07.914Z,100998.85
2023-04-27T19:42:10.392Z,100998.85
2023-04-27T19:47:10.123Z,101005.33
2023-04-27T19:52:10.311Z,101008.59
2023-04-27T19:57:10.039Z,101006.45
2023-04-27T20:02:10.142Z,101004.88
2023-04-27T20:07:11.102Z,101009.15
2023-04-27T20:12:19.640Z,101013.55
2023-04-27T20:17:10.251Z,101011.55
2023-04-27T20:22:10.190Z,101016.18
2023-04-27T20:27:11.604Z,101021.72
2023-04-27T20:30:03.024Z,101021.01
2023-04-27T20:32:09.955Z,101021.01
2023-04-27T20:37:10.266Z,101020.97
2023-04-27T20:42:11.529Z,101025.98000000001
2023-04-27T20:43:00.347Z,101031.31
2023-04-27T21:11:07.736Z,101034.55
2023-04-27T21:12:38.578Z,101041.09
2023-04-27T21:17:38.674Z,101043.16
2023-04-27T21:22:38.681Z,101041.06
2023-04-27T21:27:39.703Z,101046.92
2023-04-27T21:32:38.677Z,101048.46
2023-04-27T21:37:38.772Z,101050.17
2023-04-27T21:42:38.672Z,101055.83
2023-04-27T21:44:00.584Z,101055.83
2023-04-27T21:47:38.648Z,101054.66
2023-04-27T21:52:39.134Z,101065.41
2023-04-27T21:57:38.597Z,101066.97
2023-04-27T22:02:39.320Z,101073.51
2023-04-27T22:07:38.966Z,101073.91
2023-04-27T22:12:38.793Z,101068.59
2023-04-27T22:17:39.682Z,101072.56
2023-04-27T22:22:39.803Z,101076.92
2023-04-27T22:27:45.002Z,101080.22
2023-04-27T22:30:00.537Z,101080.22
2023-04-27T22:32:38.604Z,101081.47
2023-04-27T22:33:18.596Z,101081.47
2023-04-27T22:37:38.902Z,101078.35
2023-04-27T22:41:45.196Z,101081.83
2023-04-27T22:43:36.005Z,101081.83
2023-04-27T22:47:40.210Z,101080.83
2023-04-27T22:50:28.093Z,101080.83
2023-04-27T22:52:41.022Z,101080.56
2023-04-27T22:57:40.010Z,101077.86
2023-04-27T23:02:39.486Z,101080.75
2023-04-27T23:07:40.151Z,101083.09000000001
2023-04-27T23:12:27.107Z,101082.48
2023-04-27T23:12:39.124Z,101082.48
2023-04-27T23:17:39.462Z,101081.87000000001
2023-04-27T23:20:53.493Z,101081.87000000001
2023-04-27T23:22:42.529Z,101078.86
2023-04-27T23:27:38.550Z,101084.89
2023-04-27T23:30:31.521Z,101084.89
2023-04-27T23:30:52.956Z,101084.89
2023-04-27T23:32:38.876Z,101088.35
2023-04-27T23:37:38.757Z,101081.36
2023-04-27T23:42:38.560Z,101083.22
2023-04-27T23:47:38.629Z,101086.29
2023-04-27T23:52:38.926Z,101083.83
2023-04-27T23:52:48.542Z,101083.83
2023-04-27T23:58:21.044Z,101088.55
